Flight Track Log - Related Links

Times and Time Zones

All times are in EDT time to prevent confusion due to time zone crossing. See the N509QS flight status page for this flight to view local times or setup timezone preferences in your user account.

Time Position Orientation Groundspeed Altitude Reporting Facility
EDT Latitude Longitude Course Direction KTS MPH feet Rate Location/Type
Sun 02:00:29 PM 43.0700 -77.7725 228° Southwest 251 289 6,900  Level Cleveland Center
Sun 02:01:48 PM 42.9797 -77.7397 165° South 298 343 10,000 2,245 Climbing Cleveland Center
Sun 02:02:48 PM 42.9428 -77.5994 110° East 307 353 12,100 2,800 Climbing Cleveland Center
Sun 02:03:48 PM 42.9136 -77.4478 105° East 351 404 15,600 1,882 Climbing Cleveland Center
Sun 02:06:28 PM 42.8325 -77.0417 105° East 441 507 19,000 927 Climbing Boston Center
Sun 02:07:28 PM 42.8144 -76.8647 98° East 441 507 19,000  Level Boston Center
Sun 02:08:28 PM 42.8125 -76.6975 91° East 436 502 19,000  Level Boston Center
Sun 02:09:28 PM 42.8097 -76.5472 91° East 441 507 19,000  Level Boston Center
Sun 02:10:28 PM 42.8036 -76.3683 93° East 435 501 19,000  Level Boston Center
Sun 02:11:28 PM 42.7878 -76.2175 98° East 435 501 19,000  Level Boston Center
Sun 02:12:28 PM 42.7722 -76.0581 98° East 435 501 19,000  Level Boston Center
Sun 02:13:28 PM 42.7522 -75.8928 99° East 435 501 19,000  Level Boston Center
Sun 02:14:28 PM 42.7325 -75.7219 99° East 435 501 19,000  Level Boston Center
Sun 02:15:40 PM 42.7106 -75.5286 99° East 435 501 19,000 -409 Level Boston Center
Sun 02:16:40 PM 42.6900 -75.3667 100° East 435 501 18,100 -1,150 Descending Boston Center
Sun 02:17:40 PM 42.6731 -75.2050 98° East 435 501 16,700 -1,682 Descending Boston Center
Sun 02:18:52 PM 42.6539 -75.0458 99° East 429 494 14,400 -2,130 Descending Boston Center
Sun 02:19:58 PM 42.6253 -74.8331 100° East 409 471 11,800 -1,700 Descending Boston Center
Sun 02:20:52 PM 42.6111 -74.7139 99° East 412 474 11,000 -421 Descending Boston Center
Sun 02:21:52 PM 42.5956 -74.5525 97° East 406 467 11,000 -250 Level Boston Center
Sun 02:22:52 PM 42.5853 -74.4253 96° East 390 449 10,500 -821 Descending Boston Center
Sun 02:23:49 PM 42.5728 -74.3008 98° East 310 357 9,400 -1,200 Descending Boston Center
Sun 02:24:52 PM 42.5661 -74.1908 95° East 305 351 8,100 -1,190 Descending Boston Center
Sun 02:25:50 PM 42.5575 -74.0692 95° East 296 341 7,000 -555 Descending Boston Center
Sun 02:26:51 PM 42.5467 -73.9592 98° East 295 339 7,000  Level Boston Center
Sun 02:27:52 PM 42.5375 -73.8461 96° East 292 336 7,000 -99 Level Boston Center
Sun 02:28:52 PM 42.5283 -73.7417 97° East 292 336 6,800 -750 Descending Boston Center
Sun 02:29:52 PM 42.5194 -73.6203 96° East 297 342 5,500 -1,250 Descending Boston Center
Sun 02:30:52 PM 42.5097 -73.5272 98° East 286 329 4,300 -750 Descending Boston Center
Sun 02:31:52 PM 42.5003 -73.4200 97° East 268 308 4,000 -200 Descending Boston Center
Sun 02:32:52 PM 42.4925 -73.3494 98° East 253 291 3,900 -700 Descending Boston Center
Sun 02:33:52 PM 42.4786 -73.2564 101° East 225 259 2,600 -750 Descending Boston Center
Sun 02:34:52 PM 42.4647 -73.1775 103° East 213 245 2,400 -200 Descending Boston Center
Sun 02:37:00 PM 42.4167 -73.2833 114° Southeast  Level FlightAware Approximate
Sun 02:44:00 PM 42.4268 -73.2929 114° Southeast  Level Estimated
Sun 02:45:00 PM 42.4268 -73.2929 114° Southeast  Level Estimated
Sun 02:46:00 PM 42.4268 -73.2929 114° Southeast  Level Estimated
Sun 02:47:00 PM 42.4268 -73.2929 114° Southeast  Level Estimated
Sun 02:48:00 PM 42.4268 -73.2929 114° Southeast  Level Estimated
Sun 02:49:00 PM 42.4268 -73.2929 114° Southeast  Level Estimated

Login

Don't have an account? Register now (free) for customized features, flight alerts, and more!